Time;durP1;ratioP1;P1;durP2;ratioP2;P2;SDS_P1;SDS_P2;PMS_P1;PMS_P2;Temp;Humidity;BMP_temperature;BMP_pressure;BME280_temperature;BME280_humidity;BME280_pressure;Samples;Min_cycle;Max_cycle;Signal;HPM_P1;HPM_P2
2022/11/23 00:00:31;;;;;;;12.58;6.12;;;;;;;-0.21;88.55;99902.64;1733081;81;21125;-69
2022/11/23 00:03:01;;;;;;;11.48;6.03;;;;;;;-0.19;88.74;99903.34;1736561;81;21126;-68
2022/11/23 00:05:32;;;;;;;12.43;6.50;;;;;;;-0.17;88.87;99905.41;1721323;81;21154;-68
2022/11/23 00:08:02;;;;;;;13.05;6.70;;;;;;;-0.15;88.88;99907.95;1712790;83;21542;-68
2022/11/23 00:10:33;;;;;;;14.53;7.12;;;;;;;-0.13;88.92;99899.23;1728469;81;21122;-68
2022/11/23 00:13:03;;;;;;;12.00;6.58;;;;;;;-0.14;88.93;99893.50;1726572;81;21154;-69
2022/11/23 00:15:34;;;;;;;12.05;6.20;;;;;;;-0.14;88.96;99903.77;1749694;81;21127;-68
2022/11/23 00:18:05;;;;;;;13.45;6.53;;;;;;;-0.13;88.99;99905.97;1755811;81;21194;-67
2022/11/23 00:20:37;;;;;;;12.40;6.15;;;;;;;-0.15;88.91;99907.95;1728400;81;21182;-68
2022/11/23 00:23:06;;;;;;;11.70;6.33;;;;;;;-0.17;89.08;99901.36;1716241;83;21102;-69
2022/11/23 00:25:36;;;;;;;12.80;6.42;;;;;;;-0.16;89.22;99907.60;1713716;82;21154;-71
2022/11/23 00:28:06;;;;;;;13.68;6.33;;;;;;;-0.15;89.38;99900.73;1732616;81;21090;-67
2022/11/23 00:30:37;;;;;;;12.43;6.37;;;;;;;-0.12;89.44;99911.70;1744365;81;21128;-68
2022/11/23 00:33:08;;;;;;;12.82;6.65;;;;;;;-0.12;89.44;99911.21;1728235;81;21405;-68
2022/11/23 00:35:37;;;;;;;13.98;6.45;;;;;;;-0.10;89.55;99913.77;1740002;81;21104;-68
2022/11/23 00:38:07;;;;;;;11.55;5.92;;;;;;;-0.07;89.62;99913.48;1728493;81;21111;-69
2022/11/23 00:40:37;;;;;;;12.98;6.20;;;;;;;-0.07;89.56;99910.79;1751901;81;21118;-73
2022/11/23 00:43:08;;;;;;;11.78;5.83;;;;;;;-0.10;89.52;99902.99;1740085;81;21150;-69
2022/11/23 00:45:37;;;;;;;12.43;5.90;;;;;;;-0.13;89.52;99914.05;1760110;81;21119;-68
2022/11/23 00:48:10;;;;;;;13.95;6.45;;;;;;;-0.16;89.54;99911.64;1750078;81;21154;-68
2022/11/23 00:50:41;;;;;;;13.28;6.53;;;;;;;-0.22;89.54;99917.59;1761562;81;21149;-68
2022/11/23 00:53:12;;;;;;;13.62;6.85;;;;;;;-0.25;89.72;99910.64;1752683;81;21169;-68
2022/11/23 00:55:45;;;;;;;14.70;7.47;;;;;;;-0.24;89.89;99911.00;1700305;82;21150;-67
2022/11/23 00:58:16;;;;;;;14.53;7.08;;;;;;;-0.22;90.04;99906.33;1717270;82;21114;-68
2022/11/23 01:00:46;;;;;;;15.30;7.08;;;;;;;-0.20;90.14;99910.22;1726254;81;21167;-70
2022/11/23 01:03:16;;;;;;;14.70;7.00;;;;;;;-0.17;90.15;99911.28;1728496;81;21595;-68
2022/11/23 01:05:46;;;;;;;14.47;7.30;;;;;;;-0.18;90.12;99908.23;1726087;81;21166;-67
2022/11/23 01:08:16;;;;;;;12.98;6.37;;;;;;;-0.19;90.11;99917.30;1746442;81;21142;-69
2022/11/23 01:10:45;;;;;;;11.97;5.85;;;;;;;-0.18;90.10;99913.62;1729288;82;21189;-69
2022/11/23 01:13:16;;;;;;;14.98;6.90;;;;;;;-0.20;89.95;99919.64;1740276;81;21168;-66
2022/11/23 01:15:49;;;;;;;14.20;7.08;;;;;;;-0.21;90.01;99917.94;1751084;81;21145;-68
2022/11/23 01:18:20;;;;;;;12.45;6.55;;;;;;;-0.19;90.08;99913.27;1727379;81;21137;-68
2022/11/23 01:20:51;;;;;;;11.88;6.33;;;;;;;-0.19;90.03;99918.16;1728255;81;21532;-67
2022/11/23 01:23:22;;;;;;;11.05;5.80;;;;;;;-0.18;90.04;99929.77;1728898;81;21143;-67
2022/11/23 01:25:53;;;;;;;13.65;6.87;;;;;;;-0.17;89.96;99934.17;1728366;81;21167;-67
2022/11/23 01:28:26;;;;;;;12.50;6.60;;;;;;;-0.21;89.85;99925.52;1730817;81;21125;-68
2022/11/23 01:31:08;;;;;;;11.40;6.28;;;;;;;-0.23;89.84;99932.89;1755520;81;21166;-68
2022/11/23 01:33:41;;;;;;;13.60;6.87;;;;;;;-0.23;89.84;99927.50;1738476;81;21135;-68
2022/11/23 01:36:17;;;;;;;15.38;7.60;;;;;;;-0.19;89.86;99932.11;1740207;81;21123;-68
2022/11/23 01:38:48;;;;;;;;;;;;;;;-0.20;89.85;99939.83;1715716;81;21176;-67
2022/11/23 01:41:23;;;;;;;13.93;6.58;;;;;;;-0.19;89.95;99945.08;1741613;81;20165;-67
2022/11/23 01:43:54;;;;;;;12.60;5.78;;;;;;;-0.18;90.06;99943.23;1749760;81;21157;-68
2022/11/23 01:46:25;;;;;;;14.85;7.28;;;;;;;-0.15;90.12;99953.72;1737473;81;21189;-69
2022/11/23 01:49:03;;;;;;;14.05;6.90;;;;;;;-0.14;90.12;99946.00;1717958;82;21661;-68
2022/11/23 01:51:39;;;;;;;12.78;7.05;;;;;;;-0.13;90.16;99940.97;1724479;82;21114;-68
2022/11/23 01:54:14;;;;;;;13.83;6.67;;;;;;;-0.12;90.01;99933.25;1726272;81;21203;-67
2022/11/23 01:56:47;;;;;;;15.10;7.67;;;;;;;-0.16;89.95;99935.38;1738261;82;21098;-68
2022/11/23 01:59:18;;;;;;;14.53;6.75;;;;;;;-0.15;89.93;99938.42;1737158;81;21169;-69
2022/11/23 02:01:48;;;;;;;14.38;7.55;;;;;;;-0.18;89.84;99949.97;1720244;82;21185;-69
2022/11/23 02:04:30;;;;;;;15.32;7.28;;;;;;;-0.18;89.99;99947.27;1720174;82;21140;-69
2022/11/23 02:07:01;;;;;;;15.30;7.62;;;;;;;-0.17;90.09;99942.24;1713509;82;21996;-67
2022/11/23 02:09:31;;;;;;;15.38;7.35;;;;;;;-0.14;90.16;99942.81;1721819;82;21148;-68
2022/11/23 02:12:03;;;;;;;18.45;8.68;;;;;;;-0.11;90.18;99943.88;1740832;82;21108;-70
2022/11/23 02:14:34;;;;;;;17.02;8.10;;;;;;;-0.11;90.20;99949.76;1732333;82;21155;-69
2022/11/23 02:17:03;;;;;;;18.52;8.10;;;;;;;-0.11;90.31;99950.61;1740095;82;21099;-67
2022/11/23 02:19:56;;;;;;;14.50;7.17;;;;;;;-0.10;90.22;99955.50;1736308;82;21148;-68
2022/11/23 02:22:53;;;;;;;15.10;8.15;;;;;;;-0.13;90.14;99962.51;1719807;82;21633;-69
2022/11/23 02:25:47;;;;;;;18.00;8.43;;;;;;;-0.13;90.19;99962.51;1725878;82;21121;-69
2022/11/23 02:28:24;;;;;;;14.93;7.65;;;;;;;-0.12;90.38;99956.14;1720348;82;21183;-69
2022/11/23 02:30:54;;;;;;;12.03;6.10;;;;;;;-0.07;90.41;99957.91;1740902;82;21190;-70
2022/11/23 02:33:26;;;;;;;16.00;8.53;;;;;;;-0.05;90.40;99960.81;1726587;81;21112;-68
2022/11/23 02:35:59;;;;;;;16.35;7.80;;;;;;;-0.02;90.40;99956.49;1733964;82;21144;-67
2022/11/23 02:38:41;;;;;;;16.12;8.18;;;;;;;0.01;90.44;99960.78;1702955;83;21185;-68
2022/11/23 02:41:11;;;;;;;14.28;7.25;;;;;;;0.02;90.44;99963.83;1728988;82;21128;-67
2022/11/23 02:43:41;;;;;;;15.05;7.83;;;;;;;0.03;90.36;99959.30;1720206;82;21182;-68
2022/11/23 02:46:12;;;;;;;15.00;7.67;;;;;;;0.01;90.26;99959.93;1707087;83;21102;-67
2022/11/23 02:48:42;;;;;;;15.43;7.67;;;;;;;-0.03;90.19;99961.52;1725966;82;21135;-68
2022/11/23 02:51:12;;;;;;;14.40;7.15;;;;;;;-0.04;90.28;99960.32;1736445;82;21126;-69
2022/11/23 02:53:42;;;;;;;16.93;7.65;;;;;;;-0.05;90.25;99972.08;1723348;82;21131;-70
2022/11/23 02:56:12;;;;;;;15.85;7.37;;;;;;;-0.06;90.26;99972.58;1735533;81;21140;-69
2022/11/23 02:58:43;;;;;;;15.30;7.97;;;;;;;-0.03;90.29;99971.45;1749499;82;21542;-69
2022/11/23 03:01:12;;;;;;;15.38;7.58;;;;;;;-0.03;90.33;99976.83;1730953;81;21102;-69
2022/11/23 03:03:44;;;;;;;17.05;7.90;;;;;;;-0.04;90.27;99976.48;1738299;82;21130;-67
2022/11/23 03:06:13;;;;;;;16.15;8.28;;;;;;;-0.04;90.34;99973.78;1737049;82;21108;-69
2022/11/23 03:08:44;;;;;;;17.90;8.75;;;;;;;-0.02;90.35;99981.23;1725380;82;21129;-69
2022/11/23 03:11:16;;;;;;;17.07;8.60;;;;;;;0.02;90.34;99978.64;1729530;82;21162;-68
2022/11/23 03:13:47;;;;;;;19.52;8.20;;;;;;;0.03;90.41;99975.45;1736323;82;21183;-68
2022/11/23 03:16:18;;;;;;;19.62;9.28;;;;;;;0.05;90.47;99972.13;1736119;81;21546;-69
2022/11/23 03:18:50;;;;;;;15.98;7.42;;;;;;;0.07;90.47;99969.64;1736769;82;21200;-68
2022/11/23 03:21:20;;;;;;;14.70;6.53;;;;;;;0.09;90.37;99973.05;1711393;82;21165;-70
2022/11/23 03:23:50;;;;;;;12.93;6.40;;;;;;;0.10;90.22;99976.09;1735508;82;21169;-68
2022/11/23 03:26:21;;;;;;;13.78;6.12;;;;;;;0.08;90.04;99971.84;1761087;81;21179;-69
2022/11/23 03:28:53;;;;;;;11.70;6.20;;;;;;;0.06;89.79;99972.48;1749017;81;21130;-68
2022/11/23 03:31:27;;;;;;;14.60;7.53;;;;;;;0.05;89.64;99973.47;1725093;82;21148;-68
2022/11/23 03:33:58;;;;;;;17.00;8.53;;;;;;;0.07;89.57;99971.48;1725104;82;21179;-67
2022/11/23 03:36:28;;;;;;;17.25;8.50;;;;;;;0.08;89.46;99974.03;1733527;82;21136;-67
2022/11/23 03:38:58;;;;;;;14.05;6.92;;;;;;;0.08;89.43;99979.92;1758214;81;21617;-66
2022/11/23 03:41:33;;;;;;;13.68;6.37;;;;;;;0.08;89.43;99976.73;1730536;82;21205;-68
2022/11/23 03:44:03;;;;;;;11.38;5.62;;;;;;;0.07;89.39;99978.22;1747698;81;21130;-67
2022/11/23 03:46:34;;;;;;;10.58;5.45;;;;;;;0.07;89.38;99983.11;1716381;82;21110;-67
2022/11/23 03:49:04;;;;;;;11.40;5.72;;;;;;;0.07;89.27;99981.77;1748852;81;21616;-69
2022/11/23 03:51:34;;;;;;;9.33;5.45;;;;;;;0.05;89.14;99984.24;1753434;80;21150;-69
2022/11/23 03:54:04;;;;;;;12.33;5.47;;;;;;;0.05;89.04;99983.75;1735743;82;21541;-69
2022/11/23 03:56:35;;;;;;;10.53;5.45;;;;;;;-0.01;88.69;99994.55;1726699;82;21374;-68
2022/11/23 03:59:05;;;;;;;12.33;5.97;;;;;;;-0.03;88.71;99994.34;1725694;82;21178;-67
2022/11/23 04:01:35;;;;;;;12.85;5.75;;;;;;;-0.03;88.72;99987.61;1739900;82;21182;-68
2022/11/23 04:04:06;;;;;;;11.78;5.50;;;;;;;-0.03;88.75;99980.88;1741836;82;21122;-69
2022/11/23 04:06:38;;;;;;;12.58;6.03;;;;;;;-0.02;88.76;99981.23;1725634;82;21187;-69
2022/11/23 04:09:13;;;;;;;12.80;6.50;;;;;;;-0.02;88.70;99985.27;1747323;82;21145;-68
2022/11/23 04:11:51;;;;;;;16.32;7.08;;;;;;;-0.03;88.71;99988.45;1741715;82;21122;-68
2022/11/23 04:14:22;;;;;;;14.38;7.00;;;;;;;-0.03;88.78;99980.38;1754464;82;21146;-68
2022/11/23 04:16:52;;;;;;;13.28;6.50;;;;;;;-0.03;88.77;99990.30;1754760;82;21378;-67
2022/11/23 04:19:23;;;;;;;13.30;7.08;;;;;;;-0.05;88.72;99996.31;1727600;81;21169;-68
2022/11/23 04:21:53;;;;;;;12.98;5.80;;;;;;;-0.07;88.75;99992.42;1725389;82;21204;-67
2022/11/23 04:24:24;;;;;;;13.50;6.20;;;;;;;-0.10;88.75;99986.47;1723883;82;21170;-69
2022/11/23 04:26:55;;;;;;;14.80;6.62;;;;;;;-0.15;88.74;99984.69;1733969;82;21143;-68
2022/11/23 04:29:26;;;;;;;10.53;5.00;;;;;;;-0.18;88.82;99985.81;1725385;82;21194;-72
2022/11/23 04:31:55;;;;;;;10.82;5.55;;;;;;;-0.16;88.92;99992.41;1736781;82;21169;-69
2022/11/23 04:34:24;;;;;;;11.75;5.70;;;;;;;-0.18;88.96;100009.19;1736695;82;21126;-68
2022/11/23 04:36:56;;;;;;;11.50;5.47;;;;;;;-0.20;88.94;99999.91;1738314;82;21100;-68
2022/11/23 04:39:28;;;;;;;10.20;5.62;;;;;;;-0.18;89.00;99998.42;1724941;82;21167;-68
2022/11/23 04:42:13;;;;;;;10.53;5.17;;;;;;;-0.17;88.97;99998.78;1720628;82;21102;-69
2022/11/23 04:44:45;;;;;;;12.80;5.45;;;;;;;-0.19;88.95;100000.27;1754563;81;21198;-68
2022/11/23 04:47:15;;;;;;;11.53;5.40;;;;;;;-0.18;89.00;99994.39;1725163;81;21129;-68
2022/11/23 04:49:46;;;;;;;11.73;6.42;;;;;;;-0.17;88.88;100001.47;1746080;82;21154;-68
2022/11/23 04:52:17;;;;;;;12.50;5.78;;;;;;;-0.19;88.93;100000.77;1728936;82;21136;-68
2022/11/23 04:54:49;;;;;;;11.80;5.75;;;;;;;-0.21;88.87;100003.59;1723005;82;21178;-68
2022/11/23 04:57:19;;;;;;;12.58;6.05;;;;;;;-0.26;88.80;100013.08;1723202;82;21114;-69
2022/11/23 04:59:49;;;;;;;15.38;7.12;;;;;;;-0.28;88.91;100017.25;1747324;82;21173;-68
2022/11/23 05:02:18;;;;;;;13.40;6.25;;;;;;;-0.27;89.05;100016.76;1720219;82;21609;-69
2022/11/23 05:04:52;;;;;;;11.70;5.75;;;;;;;-0.26;89.12;100018.45;1726834;82;21144;-68
2022/11/23 05:07:22;;;;;;;11.18;5.40;;;;;;;-0.23;89.18;100018.18;1712564;82;21205;-69
2022/11/23 05:09:54;;;;;;;11.78;5.85;;;;;;;-0.23;89.10;100011.45;1726366;81;21602;-68
2022/11/23 05:12:24;;;;;;;11.68;5.90;;;;;;;-0.23;89.13;100000.69;1644432;86;21129;-68
2022/11/23 05:14:55;;;;;;;12.90;5.75;;;;;;;-0.23;89.21;99999.34;1658683;86;21126;-69
2022/11/23 05:17:28;;;;;;;14.03;5.58;;;;;;;-0.23;89.20;100002.03;1639941;87;21170;-69
2022/11/23 05:19:58;;;;;;;13.10;5.80;;;;;;;-0.21;89.15;100002.74;1627134;87;21165;-69
2022/11/23 05:22:30;;;;;;;14.07;6.30;;;;;;;-0.23;89.11;100012.80;1644475;86;21539;-68
2022/11/23 05:25:00;;;;;;;14.53;5.87;;;;;;;-0.22;89.24;100007.77;1635265;86;21221;-70
2022/11/23 05:27:30;;;;;;;10.25;5.42;;;;;;;-0.21;89.35;100009.47;1648319;86;21298;-68
2022/11/23 05:30:00;;;;;;;11.57;6.25;;;;;;;-0.17;89.34;100016.28;1670076;82;21134;-68
2022/11/23 05:32:29;;;;;;;11.85;5.80;;;;;;;-0.21;89.18;100017.05;1737202;82;21667;-69
2022/11/23 05:34:59;;;;;;;10.68;5.17;;;;;;;-0.22;89.22;100015.84;1725568;82;21191;-69
2022/11/23 05:37:30;;;;;;;11.43;6.03;;;;;;;-0.24;89.27;100013.30;1737601;82;21209;-69
2022/11/23 05:40:01;;;;;;;13.60;6.45;;;;;;;-0.24;89.32;100015.13;1737415;82;21177;-70
2022/11/23 05:42:33;;;;;;;12.07;6.58;;;;;;;-0.21;89.31;100029.66;1725336;82;21165;-68
2022/11/23 05:47:50;;;;;;;10.30;5.58;;;;;;;-0.15;89.35;100032.66;1807000;77;22112;-68
2022/11/23 05:50:23;;;;;;;10.80;5.53;;;;;;;-0.18;89.26;100041.00;1757671;80;21099;-70
2022/11/23 05:52:57;;;;;;;10.95;5.33;;;;;;;-0.16;89.24;100041.72;1768367;80;21590;-68
2022/11/23 05:55:28;;;;;;;12.63;6.28;;;;;;;-0.13;89.17;100045.98;1746887;80;21154;-69
2022/11/23 05:57:58;;;;;;;13.13;6.40;;;;;;;-0.13;89.17;100046.83;1711644;83;21122;-67
2022/11/23 06:00:29;;;;;;;13.08;6.65;;;;;;;-0.12;89.15;100049.88;1710611;83;21099;-69
2022/11/23 06:03:00;;;;;;;14.25;6.58;;;;;;;-0.09;89.17;100046.05;1721485;82;21143;-68
2022/11/23 06:05:30;;;;;;;11.68;6.72;;;;;;;-0.07;89.16;100052.16;1638267;86;21122;-68
2022/11/23 06:07:59;;;;;;;12.33;6.35;;;;;;;-0.08;89.01;100045.92;1652533;86;21241;-70
2022/11/23 06:10:30;;;;;;;17.07;8.30;;;;;;;-0.09;89.05;100063.06;1635152;86;21677;-67
2022/11/23 06:13:03;;;;;;;15.72;8.00;;;;;;;-0.08;89.06;100057.19;1624955;86;21168;-68
2022/11/23 06:15:34;;;;;;;13.10;7.53;;;;;;;-0.06;89.07;100065.98;1644039;86;21569;-68
2022/11/23 06:18:05;;;;;;;16.95;8.10;;;;;;;-0.05;89.09;100071.72;1677219;85;21141;-67
2022/11/23 06:20:35;;;;;;;16.32;8.23;;;;;;;-0.01;89.15;100066.41;1646316;84;21158;-68
2022/11/23 06:23:06;;;;;;;16.65;8.05;;;;;;;0.01;89.14;100061.77;1708210;82;21672;-69
2022/11/23 06:25:37;;;;;;;17.98;7.85;;;;;;;0.03;89.10;100068.37;1697173;83;21196;-68
2022/11/23 06:28:19;;;;;;;21.65;10.72;;;;;;;0.04;89.03;100068.23;1701281;82;21561;-69
2022/11/23 06:30:49;;;;;;;20.88;8.83;;;;;;;0.03;89.07;100066.52;1712368;82;21161;-69
2022/11/23 06:33:19;;;;;;;17.35;8.35;;;;;;;0.03;89.15;100071.91;1724314;82;21623;-68
2022/11/23 06:35:55;;;;;;;22.13;9.80;;;;;;;0.04;89.21;100082.19;1727822;82;21654;-68
2022/11/23 06:38:27;;;;;;;13.40;6.62;;;;;;;0.02;89.15;100083.67;1723768;83;21636;-68
2022/11/23 06:41:10;;;;;;;13.90;7.22;;;;;;;0.01;89.15;100087.36;1744909;82;21615;-68
2022/11/23 06:43:41;;;;;;;20.37;9.73;;;;;;;0.01;89.23;100085.16;1728222;83;21146;-68
2022/11/23 06:46:10;;;;;;;20.32;9.43;;;;;;;-0.02;89.26;100081.72;1728641;82;21191;-70
2022/11/23 06:48:44;;;;;;;15.68;8.28;;;;;;;0.01;89.30;100077.93;1744808;81;21566;-69
2022/11/23 06:51:14;;;;;;;12.50;7.35;;;;;;;0.03;89.27;100081.34;1696597;84;21087;-69
2022/11/23 06:53:44;;;;;;;20.55;10.00;;;;;;;0.06;89.30;100080.20;1768977;81;21142;-69
2022/11/23 06:56:14;;;;;;;17.60;8.43;;;;;;;0.07;89.16;100076.03;1764989;81;21091;-67
2022/11/23 06:58:44;;;;;;;12.20;6.62;;;;;;;0.03;88.96;100073.26;1760214;81;21133;-68
2022/11/23 07:01:15;;;;;;;13.35;6.75;;;;;;;0.01;88.88;100078.42;1744133;81;21115;-68
2022/11/23 07:03:46;;;;;;;16.35;6.40;;;;;;;0.02;88.92;100077.44;1745141;81;21154;-68
2022/11/23 07:06:18;;;;;;;17.65;8.05;;;;;;;0.03;88.98;100071.91;1761048;80;21120;-70
2022/11/23 07:08:48;;;;;;;18.82;7.92;;;;;;;0.05;88.87;100076.66;1747792;81;21108;-68
2022/11/23 07:11:22;;;;;;;18.32;7.90;;;;;;;0.04;88.77;100065.53;1756372;81;21345;-67
2022/11/23 07:13:51;;;;;;;14.18;7.10;;;;;;;0.01;88.66;100068.50;1770649;81;21547;-68
2022/11/23 07:16:21;;;;;;;14.90;7.45;;;;;;;0.02;88.64;100068.86;1754451;81;21083;-68
2022/11/23 07:18:50;;;;;;;18.23;8.50;;;;;;;0.04;88.68;100076.30;1705733;84;21150;-67
2022/11/23 07:21:21;;;;;;;17.48;8.98;;;;;;;0.06;88.68;100081.06;1744030;81;21145;-67
2022/11/23 07:23:53;;;;;;;16.50;7.65;;;;;;;0.04;88.61;100088.42;1741062;82;21128;-68
2022/11/23 07:26:23;;;;;;;17.65;8.98;;;;;;;0.05;88.58;100086.59;1742250;81;21124;-67
2022/11/23 07:28:53;;;;;;;16.70;8.78;;;;;;;0.05;88.57;100090.63;1739949;81;21194;-64
2022/11/23 07:31:23;;;;;;;15.83;7.92;;;;;;;0.04;88.61;100087.58;1644846;86;21143;-64
2022/11/23 07:33:54;;;;;;;21.07;8.65;;;;;;;0.05;88.61;100082.55;1645035;86;21201;-65
2022/11/23 07:36:23;;;;;;;18.12;8.33;;;;;;;0.06;88.62;100082.41;1658056;86;21321;-63
2022/11/23 07:38:55;;;;;;;18.55;8.73;;;;;;;0.08;88.56;100086.31;1657330;86;21147;-67
2022/11/23 07:41:27;;;;;;;17.90;8.28;;;;;;;0.08;88.50;100099.28;1668730;83;21519;-64
2022/11/23 07:44:01;;;;;;;18.17;8.53;;;;;;;0.09;88.44;100113.11;1705908;83;21135;-64
2022/11/23 07:46:32;;;;;;;17.40;8.13;;;;;;;0.08;88.42;100115.44;1676179;84;21139;-64
2022/11/23 07:49:03;;;;;;;17.15;9.00;;;;;;;0.08;88.40;100103.81;1734035;80;21521;-65
2022/11/23 07:51:35;;;;;;;18.32;8.93;;;;;;;0.09;88.41;100100.98;1757389;80;21142;-64
2022/11/23 07:54:06;;;;;;;19.45;8.98;;;;;;;0.09;88.39;100100.98;1786783;80;21146;-65
2022/11/23 07:56:37;;;;;;;18.10;8.45;;;;;;;0.09;88.37;100109.06;1788040;80;21130;-64
2022/11/23 07:59:07;;;;;;;22.07;9.03;;;;;;;0.10;88.34;100110.77;1762383;80;21139;-67
2022/11/23 08:01:39;;;;;;;19.07;8.73;;;;;;;0.10;88.38;100117.50;1780725;80;21170;-64
2022/11/23 08:04:10;;;;;;;19.17;9.23;;;;;;;0.11;88.32;100115.16;1782641;80;21137;-66
2022/11/23 10:51:56;;;;;;;29.05;13.25;;;;;;;0.06;89.70;100055.47;1789171;79;21071;-71
2022/11/23 10:54:32;;;;;;;27.93;12.30;;;;;;;0.07;89.63;100053.63;1798842;79;21173;-69
2022/11/23 10:57:29;;;;;;;28.17;12.20;;;;;;;0.07;89.54;100057.17;1741092;82;21612;-70
2022/11/23 11:00:17;;;;;;;27.27;12.73;;;;;;;0.07;89.38;100063.06;1666637;85;21193;-71
2022/11/23 11:02:53;;;;;;;26.52;11.97;;;;;;;0.10;89.35;100071.71;1698695;83;21131;-70
2022/11/23 11:05:32;;;;;;;26.15;12.05;;;;;;;0.12;89.30;100076.95;1619051;88;21154;-69
2022/11/23 11:08:23;;;;;;;28.47;12.25;;;;;;;0.09;89.18;100071.85;1691547;84;21639;-66
2022/11/23 11:11:10;;;;;;;28.95;12.80;;;;;;;0.10;89.25;100063.63;1692529;85;21608;-67
2022/11/23 11:13:46;;;;;;;30.45;13.50;;;;;;;0.13;89.20;100065.20;1668867;85;21146;-65
2022/11/23 11:16:36;;;;;;;32.17;14.03;;;;;;;0.13;88.91;100059.31;1692927;83;21153;-65
2022/11/23 11:19:31;;;;;;;33.38;14.80;;;;;;;0.13;89.01;100063.35;1669022;85;21261;-67
2022/11/23 11:22:07;;;;;;;28.35;13.68;;;;;;;0.16;89.02;100060.38;1689087;85;21130;-69
2022/11/23 11:24:44;;;;;;;32.83;14.15;;;;;;;0.13;89.00;100056.62;1686038;82;21135;-69
2022/11/23 11:27:19;;;;;;;32.05;14.43;;;;;;;0.14;88.87;100059.67;1754607;81;21527;-69
2022/11/23 11:29:52;;;;;;;30.37;14.00;;;;;;;0.08;88.57;100060.22;1725605;83;21159;-70
2022/11/23 11:32:51;;;;;;;34.10;15.05;;;;;;;-0.03;88.46;100057.13;1744568;81;21205;-69
2022/11/23 11:35:34;;;;;;;33.98;15.23;;;;;;;-0.06;88.61;100067.33;1716185;81;21659;-71
2022/11/23 11:38:18;;;;;;;31.80;15.13;;;;;;;-0.06;88.72;100058.75;1732770;83;21612;-71
2022/11/23 11:40:50;;;;;;;31.37;14.30;;;;;;;-0.07;88.76;100062.92;1738775;81;21173;-70
2022/11/23 11:43:31;;;;;;;36.03;15.08;;;;;;;-0.05;88.97;100073.91;1753265;82;21126;-70
2022/11/23 11:46:07;;;;;;;34.20;14.35;;;;;;;0.01;89.07;100067.66;1770637;81;21190;-68
2022/11/23 11:48:57;;;;;;;36.25;16.60;;;;;;;0.07;89.22;100074.69;1719037;82;21103;-68
2022/11/23 11:51:39;;;;;;;35.78;15.18;;;;;;;0.14;89.27;100072.28;1755479;80;21166;-69
2022/11/23 11:54:19;;;;;;;35.73;15.13;;;;;;;0.18;89.18;100073.21;1751682;80;21151;-69
2022/11/23 11:56:51;;;;;;;33.48;15.43;;;;;;;0.20;89.04;100072.58;1747586;82;21127;-70
2022/11/23 11:59:43;;;;;;;29.57;13.05;;;;;;;0.22;89.05;100072.44;1745989;82;21130;-71
2022/11/23 12:02:22;;;;;;;40.08;18.35;;;;;;;0.20;88.91;100068.53;1737714;81;21162;-70
2022/11/23 12:05:14;;;;;;;38.15;16.80;;;;;;;0.21;88.83;100066.20;1733847;82;21099;-71
2022/11/23 12:08:01;;;;;;;37.08;16.50;;;;;;;0.19;88.66;100060.59;1721489;82;21165;-69
2022/11/23 12:10:55;;;;;;;40.35;16.48;;;;;;;0.25;89.38;100072.16;1733300;82;21215;-70
2022/11/23 12:13:34;;;;;;;37.50;15.75;;;;;;;0.34;89.39;100071.81;1717519;82;21562;-69
2022/11/23 12:16:45;;;;;;;33.42;15.28;;;;;;;0.37;89.22;100064.80;1664227;85;21699;-69
2022/11/23 12:19:25;;;;;;;36.40;16.02;;;;;;;0.35;88.72;100042.53;1723841;82;21161;-69
2022/11/23 12:22:09;;;;;;;38.40;16.42;;;;;;;0.25;88.58;100051.45;1689805;83;21142;-72
2022/11/23 12:25:10;;;;;;;37.05;16.17;;;;;;;0.27;88.71;100060.25;1692173;83;21162;-69
2022/11/23 12:27:59;;;;;;;38.67;15.38;;;;;;;0.27;88.62;100071.52;1657112;85;21576;-69
2022/11/23 12:43:22;;;;;;;39.55;18.73;;;;;;;0.77;86.84;100061.48;1817925;78;28647;-78
2022/11/23 12:46:19;;;;;;;41.45;18.95;;;;;;;0.66;86.92;100066.17;1813762;78;21636;-80
2022/11/23 12:49:13;;;;;;;36.75;17.30;;;;;;;0.55;87.01;100072.03;1791516;79;21106;-81
2022/11/23 12:52:17;;;;;;;36.58;16.97;;;;;;;0.46;87.20;100074.73;1803349;79;21142;-78
2022/11/23 12:54:57;;;;;;;44.77;17.82;;;;;;;0.43;87.74;100078.56;1789998;79;21138;-73
2022/11/23 12:57:39;;;;;;;40.78;17.45;;;;;;;0.39;87.79;100066.36;1796551;79;21130;-79
2022/11/23 13:00:37;;;;;;;39.48;16.37;;;;;;;0.38;87.80;100069.19;1775351;79;21540;-77
2022/11/23 13:03:39;;;;;;;42.27;17.57;;;;;;;0.31;87.81;100064.37;1797455;79;21218;-77
2022/11/23 13:06:43;;;;;;;41.18;18.07;;;;;;;0.26;87.92;100051.81;1809817;79;21571;-76
2022/11/23 13:33:50;;;;;;;43.70;22.40;;;;;;;1.59;86.17;100069.82;1829431;77;22205;-66
2022/11/23 13:47:20;;;;;;;82.97;42.20;;;;;;;1.64;83.82;100084.23;1837365;78;27975;-66
2022/11/23 13:50:17;;;;;;;72.72;36.63;;;;;;;1.42;83.61;100083.25;1827729;78;21146;-65
2022/11/23 13:52:52;;;;;;;68.47;32.78;;;;;;;1.22;83.68;100075.17;1827876;78;21234;-66
2022/11/23 13:55:35;;;;;;;68.90;31.80;;;;;;;1.07;83.85;100075.28;1827814;77;21071;-65
2022/11/23 13:58:30;;;;;;;77.42;32.78;;;;;;;0.97;83.97;100068.20;1827668;78;21170;-64
2022/11/23 14:01:01;;;;;;;72.50;29.92;;;;;;;0.85;84.11;100075.10;1819291;77;21142;-63
2022/11/23 14:03:47;;;;;;;67.15;29.48;;;;;;;0.78;84.30;100077.17;1818403;77;21128;-64
2022/11/23 14:06:55;;;;;;;65.70;29.42;;;;;;;0.69;84.34;100081.57;1795632;78;21150;-65
2022/11/23 14:09:53;;;;;;;68.70;29.00;;;;;;;0.56;84.53;100078.28;1795623;78;21169;-64
2022/11/23 14:12:49;;;;;;;56.75;24.70;;;;;;;0.47;84.87;100077.78;1746347;81;21170;-65
2022/11/23 14:15:46;;;;;;;55.83;23.67;;;;;;;0.40;85.13;100077.98;1730771;81;21157;-64
2022/11/23 14:19:24;;;;;;;54.08;25.32;;;;;;;0.35;85.29;100075.72;1751619;81;21146;-65
2022/11/23 14:22:08;;;;;;;49.93;22.30;;;;;;;0.30;85.50;100088.27;1757172;80;21685;-65
2022/11/23 14:24:59;;;;;;;54.58;23.20;;;;;;;0.23;85.55;100097.89;1764272;81;21562;-63
2022/11/23 14:27:47;;;;;;;54.40;24.90;;;;;;;0.20;85.71;100107.60;1756601;80;21083;-65
2022/11/23 14:30:23;;;;;;;50.58;22.25;;;;;;;0.19;86.00;100109.94;1742064;82;21118;-64
2022/11/23 14:33:16;;;;;;;48.15;21.80;;;;;;;0.17;86.04;100113.27;1758047;80;21098;-65
2022/11/23 14:35:53;;;;;;;44.33;19.37;;;;;;;0.12;86.15;100114.17;1736872;81;21110;-66
2022/11/23 14:38:45;;;;;;;42.98;19.07;;;;;;;0.06;86.42;100117.42;1755002;80;21166;-66
2022/11/23 14:41:27;;;;;;;43.70;19.20;;;;;;;0.02;86.78;100115.99;1762968;80;21569;-65
2022/11/23 14:44:13;;;;;;;44.38;18.98;;;;;;;0.03;87.01;100127.62;1762868;80;21162;-65
2022/11/23 14:47:04;;;;;;;36.33;14.60;;;;;;;0.08;87.19;100122.67;1755192;80;21162;-65
2022/11/23 14:49:36;;;;;;;44.98;20.05;;;;;;;0.09;87.27;100121.19;1760939;80;21087;-67
2022/11/23 14:52:17;;;;;;;41.75;18.30;;;;;;;0.11;87.41;100123.73;1754989;81;21162;-66
2022/11/23 14:55:03;;;;;;;43.75;18.23;;;;;;;0.08;87.35;100130.75;1754723;81;21169;-66
2022/11/23 14:57:42;;;;;;;43.17;19.65;;;;;;;0.07;87.40;100125.86;1754685;81;21142;-67
2022/11/23 15:00:42;;;;;;;47.73;20.40;;;;;;;0.05;87.55;100133.22;1763779;80;21154;-65
2022/11/23 15:03:27;;;;;;;38.15;17.25;;;;;;;0.08;87.98;100134.30;1686588;84;21195;-68
2022/11/23 15:06:11;;;;;;;43.30;18.82;;;;;;;0.08;87.99;100132.95;1675038;84;21135;-67
2022/11/23 15:09:24;;;;;;;43.78;19.25;;;;;;;0.08;87.99;100129.41;1675653;84;21240;-67
2022/11/23 15:12:27;;;;;;;40.70;17.67;;;;;;;0.05;88.04;100135.92;1695077;84;21587;-67
2022/11/23 15:14:58;;;;;;;39.13;17.87;;;;;;;0.02;88.10;100138.88;1684848;84;21169;-66
2022/11/23 15:17:29;;;;;;;41.28;17.52;;;;;;;-0.05;88.12;100138.55;1676306;84;21132;-68
2022/11/23 15:20:01;;;;;;;41.55;18.45;;;;;;;-0.04;88.20;100139.40;1685625;85;21527;-68
2022/11/23 15:22:38;;;;;;;41.08;18.20;;;;;;;-0.05;88.31;100141.73;1686778;85;21092;-67
2022/11/23 15:25:19;;;;;;;41.40;17.87;;;;;;;-0.07;88.39;100131.09;1666191;85;21128;-68
2022/11/23 15:27:51;;;;;;;45.43;18.60;;;;;;;-0.09;88.52;100124.14;1680149;85;21153;-70
2022/11/23 15:30:29;;;;;;;45.55;20.02;;;;;;;-0.06;88.64;100129.26;1691040;84;21511;-68
2022/11/23 15:33:12;;;;;;;44.30;19.57;;;;;;;-0.05;88.67;100136.34;1686746;85;21551;-68
2022/11/23 15:35:47;;;;;;;47.93;18.98;;;;;;;-0.02;89.06;100132.89;1687562;84;21533;-68
2022/11/23 15:38:23;;;;;;;48.30;19.60;;;;;;;0.01;89.00;100138.53;1667650;85;21174;-70